Time;durP1;ratioP1;P1;durP2;ratioP2;P2;SDS_P1;SDS_P2;PMS_P1;PMS_P2;Temp;Humidity;BMP_temperature;BMP_pressure;BME280_temperature;BME280_humidity;BME280_pressure;Samples;Min_cycle;Max_cycle;Signal;HPM_P1;HPM_P2
2022/01/18 00:00:18;;;;;;;3.67;1.70;;;19.20;60.50;;;;;;10627433;27;20046;-63
2022/01/18 00:05:47;;;;;;;8.77;2.00;;;19.20;60.50;;;;;;10626648;27;20051;-63
2022/01/18 00:10:52;;;;;;;3.47;1.83;;;19.20;60.60;;;;;;10626481;27;20552;-62
2022/01/18 00:21:20;;;;;;;6.22;2.15;;;19.10;60.70;;;;;;10626605;27;20400;-62
2022/01/18 00:26:30;;;;;;;17.23;2.05;;;19.10;60.70;;;;;;10625881;27;20045;-62
2022/01/18 00:41:53;;;;;;;5.38;1.77;;;19.00;60.80;;;;;;10625335;27;20043;-62
2022/01/18 00:46:58;;;;;;;4.05;2.05;;;19.00;60.80;;;;;;10625821;27;20495;-63
2022/01/18 00:52:04;;;;;;;7.00;2.17;;;19.00;60.80;;;;;;10625150;27;20051;-62
2022/01/18 00:57:15;;;;;;;2.60;1.75;;;19.00;61.00;;;;;;10624602;27;20046;-63
2022/01/18 01:02:20;;;;;;;8.52;1.80;;;19.00;61.00;;;;;;10624601;27;20047;-62
2022/01/18 01:07:26;;;;;;;6.35;2.45;;;19.00;61.00;;;;;;10624566;27;20051;-63
2022/01/18 01:12:31;;;;;;;5.00;1.90;;;18.90;61.00;;;;;;10624206;27;20065;-62
2022/01/18 01:18:05;;;;;;;5.78;1.80;;;18.90;61.00;;;;;;10625092;27;20076;-62
2022/01/18 01:45:14;;;;;;;10.10;1.40;;;18.80;61.20;;;;;;10492929;28;20401;-62
2022/01/18 01:50:21;;;;;;;2.80;1.30;;;18.80;61.20;;;;;;10492910;28;20045;-62
2022/01/18 01:55:26;;;;;;;4.57;1.48;;;18.80;61.20;;;;;;10492589;28;20102;-62
2022/01/18 02:00:31;;;;;;;5.30;1.55;;;18.70;61.30;;;;;;10492814;28;20052;-62
2022/01/18 02:05:36;;;;;;;5.95;1.00;;;18.80;61.30;;;;;;10492620;28;20056;-62
2022/01/18 02:10:42;;;;;;;6.28;1.40;;;18.70;61.40;;;;;;10515243;28;20088;-63
2022/01/18 02:16:11;;;;;;;3.53;1.30;;;18.70;61.50;;;;;;10622740;28;20051;-63
2022/01/18 02:26:37;;;;;;;2.75;1.40;;;18.70;61.70;;;;;;10622781;28;20088;-64
2022/01/18 02:31:46;;;;;;;3.22;1.20;;;18.70;61.80;;;;;;10623606;28;20040;-63
2022/01/18 02:36:53;;;;;;;8.23;1.35;;;18.60;61.80;;;;;;10625664;27;20047;-63
2022/01/18 02:42:06;;;;;;;2.42;1.30;;;18.60;61.80;;;;;;10630021;27;20388;-63
2022/01/18 02:47:11;;;;;;;2.63;1.38;;;18.60;61.80;;;;;;10630005;27;20092;-63
2022/01/18 02:52:16;;;;;;;3.22;1.15;;;18.60;61.80;;;;;;10629539;27;20047;-63
2022/01/18 02:57:26;;;;;;;3.03;1.40;;;18.50;61.80;;;;;;10629332;27;20096;-63
2022/01/18 03:07:54;;;;;;;3.42;1.10;;;18.60;61.90;;;;;;10629710;27;20043;-63
2022/01/18 03:12:59;;;;;;;2.05;1.17;;;18.50;62.00;;;;;;10629919;27;20042;-63
2022/01/18 03:18:09;;;;;;;4.78;1.30;;;18.50;62.10;;;;;;10628507;27;20047;-62
2022/01/18 03:23:18;;;;;;;3.78;1.48;;;18.50;62.30;;;;;;10628318;27;20051;-63
2022/01/18 03:28:24;;;;;;;2.25;1.08;;;18.50;62.50;;;;;;10628857;27;20058;-62
2022/01/18 03:33:31;;;;;;;4.53;1.17;;;18.50;62.60;;;;;;10628083;27;20472;-63
2022/01/18 03:38:36;;;;;;;6.45;1.50;;;18.50;62.60;;;;;;10627638;27;20092;-62
2022/01/18 03:43:41;;;;;;;3.25;1.40;;;18.50;62.70;;;;;;10627660;27;20047;-63
2022/01/18 03:48:50;;;;;;;3.17;1.20;;;18.50;62.80;;;;;;10628139;27;20468;-62
2022/01/18 03:53:55;;;;;;;7.60;1.48;;;18.50;62.80;;;;;;10627273;27;20047;-62
2022/01/18 03:59:00;;;;;;;5.25;1.30;;;18.40;62.80;;;;;;10626826;27;20387;-63
2022/01/18 04:04:05;;;;;;;3.75;1.13;;;18.40;62.80;;;;;;10626804;27;20055;-62
2022/01/18 04:09:09;;;;;;;6.07;1.25;;;18.40;62.90;;;;;;10626674;27;20051;-62
2022/01/18 04:14:14;;;;;;;6.10;1.35;;;18.40;62.80;;;;;;10626093;27;20416;-63
2022/01/18 04:25:48;;;;;;;1.95;1.20;;;18.40;62.80;;;;;;10626095;27;20099;-62
2022/01/18 04:30:12;;;;;;;3.60;1.27;;;18.60;62.80;;;;;;10626474;27;20406;-62
2022/01/18 04:35:16;;;;;;;2.78;1.00;;;18.70;62.70;;;;;;10625567;27;20054;-62
2022/01/18 04:40:27;;;;;;;4.95;1.10;;;18.90;62.70;;;;;;10625424;27;20145;-61
2022/01/18 04:51:03;;;;;;;5.78;0.93;;;19.10;62.40;;;;;;10624998;27;20072;-62
2022/01/18 04:56:15;;;;;;;3.05;2.20;;;19.20;62.30;;;;;;10625454;27;20423;-62
2022/01/18 05:01:20;;;;;;;2.53;1.05;;;19.20;62.30;;;;;;10624291;27;20047;-62
2022/01/18 05:06:25;;;;;;;5.63;0.93;;;19.30;63.00;;;;;;10624551;27;20066;-62
2022/01/18 05:11:32;;;;;;;9.45;1.02;;;19.40;62.40;;;;;;10624194;27;20046;-63
2022/01/18 05:27:26;;;;;;;3.60;1.40;;;19.70;62.70;;;;;;10410767;28;20057;-64
2022/01/18 05:32:31;;;;;;;2.33;1.05;;;19.70;62.70;;;;;;10410947;28;20110;-64
2022/01/18 05:37:36;;;;;;;6.40;1.23;;;19.80;62.70;;;;;;10411232;28;20068;-62
2022/01/18 05:42:41;;;;;;;9.27;1.50;;;19.80;62.60;;;;;;10410196;28;20454;-63
2022/01/18 05:47:47;;;;;;;3.42;1.00;;;19.90;62.60;;;;;;10410243;28;20054;-62
2022/01/18 05:52:52;;;;;;;1.65;1.05;;;20.00;62.50;;;;;;10410222;28;20131;-62
2022/01/18 05:57:56;;;;;;;4.50;1.20;;;20.00;62.40;;;;;;10531009;28;20048;-62
2022/01/18 06:03:10;;;;;;;9.95;1.35;;;20.10;62.40;;;;;;10581631;28;20073;-63
2022/01/18 06:08:16;;;;;;;21.80;1.52;;;20.10;62.20;;;;;;10580864;28;20043;-61
2022/01/18 06:13:21;;;;;;;6.55;1.10;;;20.10;62.10;;;;;;10586167;28;20557;-62
2022/01/18 06:18:26;;;;;;;8.10;1.48;;;20.10;62.00;;;;;;10589139;27;20073;-62
2022/01/18 06:23:31;;;;;;;163.18;20.20;;;20.10;61.90;;;;;;10589419;28;20040;-64
2022/01/18 06:28:36;;;;;;;42.78;8.38;;;20.20;62.10;;;;;;10601375;27;20516;-61
2022/01/18 06:33:40;;;;;;;22.58;6.00;;;20.10;61.30;;;;;;10631015;27;20039;-61
2022/01/18 06:38:45;;;;;;;16.67;4.47;;;20.00;60.60;;;;;;10630833;27;20039;-62
2022/01/18 06:43:50;;;;;;;24.15;4.70;;;19.80;60.20;;;;;;10630207;27;20051;-62
2022/01/18 06:48:55;;;;;;;9.77;4.18;;;19.70;59.60;;;;;;10629975;27;20072;-62
2022/01/18 06:54:00;;;;;;;16.40;3.75;;;19.60;59.50;;;;;;10630175;27;20039;-62
2022/01/18 06:59:07;;;;;;;9.63;3.88;;;19.60;59.50;;;;;;10630019;27;20046;-62
2022/01/18 07:04:12;;;;;;;17.88;3.50;;;19.50;59.50;;;;;;10629453;27;20099;-66
2022/01/18 07:09:22;;;;;;;13.55;3.95;;;19.50;59.30;;;;;;10629839;27;20105;-65
2022/01/18 07:14:28;;;;;;;10.23;3.78;;;19.50;59.30;;;;;;10629374;27;20043;-65
2022/01/18 07:19:33;;;;;;;10.75;3.47;;;19.50;59.30;;;;;;10628330;27;20055;-65
2022/01/18 07:29:43;;;;;;;9.90;3.47;;;19.40;59.40;;;;;;10628878;27;20051;-65
2022/01/18 07:34:53;;;;;;;13.50;4.78;;;19.30;59.40;;;;;;10628109;27;20401;-65
2022/01/18 07:39:58;;;;;;;14.48;5.60;;;19.30;59.60;;;;;;10627791;27;20112;-65
2022/01/18 07:45:06;;;;;;;13.70;5.53;;;19.20;59.80;;;;;;10627678;27;20051;-65
2022/01/18 07:50:15;;;;;;;19.52;8.98;;;19.20;60.00;;;;;;10627671;27;20488;-65
2022/01/18 07:55:20;;;;;;;16.33;8.80;;;19.20;60.40;;;;;;10627240;27;20545;-65
2022/01/18 08:00:27;;;;;;;15.93;7.90;;;19.10;60.30;;;;;;10627066;27;20066;-64
2022/01/18 08:05:31;;;;;;;15.88;7.10;;;19.10;60.50;;;;;;10626864;27;20097;-65
2022/01/18 08:10:37;;;;;;;15.07;6.63;;;19.10;60.50;;;;;;10627817;27;20043;-64
2022/01/18 08:15:43;;;;;;;16.00;6.85;;;19.10;60.60;;;;;;10625916;27;20043;-64
2022/01/18 08:20:49;;;;;;;13.18;5.93;;;19.10;60.50;;;;;;10626813;27;20039;-64
2022/01/18 08:25:53;;;;;;;17.15;6.28;;;19.10;60.40;;;;;;10625639;27;20051;-64
2022/01/18 08:30:58;;;;;;;17.75;7.07;;;19.00;60.40;;;;;;10626810;27;20548;-63
2022/01/18 08:36:06;;;;;;;17.92;7.28;;;19.10;60.40;;;;;;10606674;27;20066;-64
2022/01/18 08:41:12;;;;;;;16.05;7.65;;;19.00;60.40;;;;;;10626026;27;20043;-64
2022/01/18 08:46:17;;;;;;;15.07;6.30;;;19.00;60.40;;;;;;10625853;27;20548;-65
2022/01/18 08:51:25;;;;;;;14.70;6.65;;;19.00;60.50;;;;;;10625084;27;20051;-64
2022/01/18 08:56:30;;;;;;;16.50;6.80;;;19.00;60.50;;;;;;10624816;27;20047;-64
2022/01/18 09:01:57;;;;;;;16.05;7.18;;;19.00;60.50;;;;;;10625321;27;20188;-65
2022/01/18 09:07:09;;;;;;;12.27;6.28;;;18.90;60.50;;;;;;10639368;27;20062;-65
2022/01/18 09:12:15;;;;;;;15.57;6.50;;;18.90;60.60;;;;;;10624437;27;20407;-65
2022/01/18 09:17:20;;;;;;;14.13;5.97;;;18.90;60.50;;;;;;10625239;27;20041;-65
2022/01/18 09:22:24;;;;;;;12.48;7.35;;;18.90;60.60;;;;;;10624597;27;20091;-65
2022/01/18 09:27:30;;;;;;;16.30;7.68;;;19.00;60.70;;;;;;10624202;27;20080;-64
2022/01/18 09:32:35;;;;;;;15.52;8.15;;;19.00;60.70;;;;;;10623817;27;20043;-65
2022/01/18 09:37:42;;;;;;;17.30;6.80;;;19.00;60.80;;;;;;10623523;28;20484;-65
2022/01/18 09:42:52;;;;;;;14.67;6.67;;;18.90;60.50;;;;;;10606221;28;20069;-65
2022/01/18 09:47:59;;;;;;;11.27;5.70;;;18.90;60.50;;;;;;10630770;27;20051;-65
2022/01/18 09:53:08;;;;;;;10.00;5.10;;;18.90;60.60;;;;;;10632201;27;20043;-65
2022/01/18 09:58:13;;;;;;;;;;;18.90;60.60;;;;;;10632847;27;20170;-65
2022/01/18 10:03:38;;;;;;;12.30;6.20;;;18.90;60.60;;;;;;10614627;27;20325;-65
2022/01/18 10:08:48;;;;;;;13.20;6.57;;;18.90;61.10;;;;;;10631711;27;20051;-64
2022/01/18 10:13:53;;;;;;;13.20;6.47;;;18.90;61.40;;;;;;10631890;27;20039;-64
2022/01/18 10:19:03;;;;;;;12.07;6.25;;;18.90;61.70;;;;;;10631757;27;20433;-64
2022/01/18 10:24:16;;;;;;;12.80;6.85;;;18.90;61.60;;;;;;10613448;27;20039;-64
2022/01/18 10:29:31;;;;;;;14.85;5.93;;;18.90;61.60;;;;;;10630944;27;20388;-64
2022/01/18 10:39:53;;;;;;;11.05;4.90;;;18.90;61.70;;;;;;10630455;27;20055;-64
2022/01/18 10:45:03;;;;;;;15.57;5.07;;;18.90;61.00;;;;;;10630166;27;20088;-67
2022/01/18 10:50:11;;;;;;;8.57;4.72;;;18.90;61.20;;;;;;10630101;27;20111;-65
2022/01/18 10:55:25;;;;;;;6.67;3.87;;;18.90;61.20;;;;;;10630593;27;20047;-57
2022/01/18 11:00:32;;;;;;;10.40;4.15;;;18.80;61.40;;;;;;10628958;27;20092;-48
2022/01/18 11:05:43;;;;;;;21.02;4.22;;;18.90;61.50;;;;;;10629346;27;20055;-60
2022/01/18 11:10:50;;;;;;;9.45;4.07;;;18.90;61.70;;;;;;10629248;27;20611;-59
2022/01/18 11:16:15;;;;;;;11.55;4.18;;;18.90;61.40;;;;;;10628931;27;20043;-59
2022/01/18 11:21:23;;;;;;;8.13;3.65;;;18.80;61.60;;;;;;10628695;27;20047;-59
2022/01/18 11:26:28;;;;;;;;;;;18.80;61.60;;;;;;10629563;27;20548;-60
2022/01/18 11:31:33;;;;;;;13.98;4.70;;;18.80;61.80;;;;;;10628623;27;19919;-59
2022/01/18 11:36:43;;;;;;;11.88;3.78;;;18.80;61.70;;;;;;10628804;27;20104;-59
2022/01/18 11:41:48;;;;;;;7.55;3.78;;;18.80;61.70;;;;;;10627924;27;20096;-59
2022/01/18 11:46:55;;;;;;;8.57;4.43;;;18.80;61.70;;;;;;10609843;27;20096;-60
2022/01/18 11:52:07;;;;;;;12.85;3.90;;;18.80;61.50;;;;;;10628922;27;20068;-58
2022/01/18 11:57:27;;;;;;;15.82;4.82;;;18.90;61.90;;;;;;10627253;27;20047;-58
2022/01/18 12:02:40;;;;;;;10.13;4.90;;;18.90;62.00;;;;;;10627650;27;20045;-58
2022/01/18 12:07:47;;;;;;;11.52;3.80;;;18.90;61.70;;;;;;10625918;27;20048;-58
2022/01/18 12:12:55;;;;;;;15.23;4.70;;;18.80;61.70;;;;;;10627159;27;20050;-58
2022/01/18 12:18:02;;;;;;;14.18;4.32;;;18.80;61.70;;;;;;10626633;27;20055;-59
2022/01/18 12:23:22;;;;;;;15.40;4.32;;;18.80;62.50;;;;;;10626791;27;20072;-59
2022/01/18 12:33:56;;;;;;;9.27;4.40;;;18.80;62.10;;;;;;10625546;27;20092;-59
2022/01/18 12:39:03;;;;;;;8.65;3.92;;;18.80;62.00;;;;;;10626386;27;20050;-59
2022/01/18 12:44:21;;;;;;;8.05;3.65;;;18.80;61.80;;;;;;10625545;27;20557;-59
2022/01/18 12:49:30;;;;;;;9.23;3.75;;;18.80;62.20;;;;;;10626141;27;20046;-59
2022/01/18 12:54:48;;;;;;;10.32;3.58;;;18.80;62.10;;;;;;10624953;27;20069;-59
2022/01/18 13:00:14;;;;;;;8.73;3.80;;;18.70;62.30;;;;;;10624684;27;20047;-59
2022/01/18 13:05:19;;;;;;;7.07;4.07;;;18.70;62.50;;;;;;10606772;27;20100;-59
2022/01/18 13:10:38;;;;;;;11.63;4.82;;;18.70;62.50;;;;;;10607183;27;20104;-59
2022/01/18 13:26:36;;;;;;;6.68;3.80;;;18.60;62.80;;;;;;10624612;27;20047;-59
2022/01/18 13:31:44;;;;;;;11.50;4.95;;;18.60;62.90;;;;;;10623822;27;20055;-59
2022/01/18 13:36:55;;;;;;;9.88;4.50;;;18.50;62.90;;;;;;10606766;28;20069;-59
2022/01/18 13:42:01;;;;;;;10.73;3.65;;;18.50;62.80;;;;;;10624296;28;20076;-59
2022/01/18 13:47:19;;;;;;;7.95;3.80;;;18.40;63.10;;;;;;10623644;28;20051;-59
2022/01/18 13:52:31;;;;;;;9.10;4.22;;;18.40;63.10;;;;;;10623661;28;20047;-59
2022/01/18 13:57:36;;;;;;;12.85;4.20;;;18.40;63.10;;;;;;10624186;28;20043;-58
2022/01/18 14:02:43;;;;;;;10.02;4.13;;;18.30;62.80;;;;;;10623093;28;20146;-59
2022/01/18 14:08:11;;;;;;;7.07;3.72;;;18.30;63.10;;;;;;10623756;28;20039;-59
2022/01/18 14:13:36;;;;;;;8.03;3.70;;;18.30;63.20;;;;;;10622988;28;20108;-59
2022/01/18 14:18:54;;;;;;;8.10;3.38;;;18.30;62.60;;;;;;10623529;28;20031;-59
2022/01/18 14:24:17;;;;;;;6.18;3.58;;;18.30;62.40;;;;;;10622722;28;20076;-59
2022/01/18 14:29:28;;;;;;;6.18;3.28;;;18.20;62.50;;;;;;10622605;28;20051;-59
2022/01/18 14:34:41;;;;;;;6.05;3.28;;;18.30;62.40;;;;;;10610866;27;20039;-59
2022/01/18 14:40:00;;;;;;;8.07;3.17;;;18.30;62.40;;;;;;10630475;27;20047;-59
2022/01/18 14:50:20;;;;;;;5.93;3.65;;;18.40;62.50;;;;;;10630552;27;20388;-59
2022/01/18 14:55:27;;;;;;;15.07;6.05;;;18.50;62.50;;;;;;10611795;27;20068;-59
2022/01/18 15:00:34;;;;;;;11.38;6.20;;;18.50;62.60;;;;;;10630223;27;20051;-59
2022/01/18 15:05:40;;;;;;;10.27;6.13;;;18.50;62.60;;;;;;10629498;27;20484;-59
2022/01/18 15:10:45;;;;;;;11.55;6.78;;;18.60;62.60;;;;;;10629281;27;20104;-59
2022/01/18 15:15:49;;;;;;;11.95;6.97;;;18.60;62.60;;;;;;10630057;27;20046;-58
2022/01/18 15:20:54;;;;;;;12.15;6.47;;;18.60;62.60;;;;;;10629186;27;20055;-58
2022/01/18 15:25:59;;;;;;;10.07;6.22;;;18.70;62.70;;;;;;10628395;27;20055;-59
2022/01/18 15:31:04;;;;;;;14.80;6.95;;;18.70;62.60;;;;;;10628134;27;20058;-58
2022/01/18 15:36:09;;;;;;;11.30;6.80;;;18.70;62.60;;;;;;10628735;27;20549;-59
2022/01/18 15:41:15;;;;;;;13.40;7.65;;;18.80;62.60;;;;;;10629324;27;20092;-59
2022/01/18 15:46:21;;;;;;;16.13;8.13;;;18.80;62.50;;;;;;10630305;27;20403;-59
2022/01/18 15:51:25;;;;;;;13.85;7.97;;;18.80;62.50;;;;;;10627430;27;20084;-59
2022/01/18 15:56:31;;;;;;;18.75;7.80;;;18.80;62.40;;;;;;10627225;27;20043;-59
2022/01/18 16:01:37;;;;;;;16.17;8.27;;;18.90;62.50;;;;;;10627245;27;20061;-59
2022/01/18 16:06:42;;;;;;;14.15;7.82;;;18.90;62.40;;;;;;10626527;27;20485;-59
2022/01/18 16:11:48;;;;;;;14.05;7.60;;;18.90;62.30;;;;;;10626590;27;20392;-59
2022/01/18 16:16:53;;;;;;;19.33;7.93;;;18.90;62.30;;;;;;10626403;27;20043;-59
2022/01/18 16:21:58;;;;;;;17.60;7.97;;;18.90;62.30;;;;;;10626379;27;20051;-59
2022/01/18 16:27:03;;;;;;;12.60;7.38;;;18.90;62.30;;;;;;10626062;27;20174;-59
2022/01/18 16:32:09;;;;;;;12.82;7.82;;;18.90;62.30;;;;;;10626435;27;20158;-59
2022/01/18 16:37:14;;;;;;;17.65;8.65;;;18.90;62.40;;;;;;10625552;27;20054;-59
2022/01/18 16:42:20;;;;;;;16.48;8.98;;;18.90;62.60;;;;;;10625391;27;20080;-59
2022/01/18 16:47:25;;;;;;;15.48;7.30;;;18.90;62.50;;;;;;10626136;27;20043;-59
2022/01/18 16:52:30;;;;;;;15.93;7.47;;;18.80;62.50;;;;;;10625896;27;20039;-59
2022/01/18 16:57:38;;;;;;;10.48;6.55;;;18.90;62.50;;;;;;10624886;27;20077;-59
2022/01/18 17:02:45;;;;;;;14.90;7.05;;;18.80;62.40;;;;;;10625024;27;20415;-59
2022/01/18 17:07:51;;;;;;;22.15;7.93;;;18.80;62.50;;;;;;10624682;27;20051;-59
2022/01/18 17:12:56;;;;;;;16.85;8.40;;;18.80;62.60;;;;;;10624274;27;20107;-59
2022/01/18 17:18:01;;;;;;;17.35;7.70;;;18.80;62.60;;;;;;10624596;27;20039;-59
2022/01/18 17:23:06;;;;;;;18.25;7.40;;;18.70;62.50;;;;;;10624144;27;20174;-59
2022/01/18 17:28:11;;;;;;;18.33;7.43;;;18.70;62.50;;;;;;10624848;27;20047;-59
2022/01/18 17:33:17;;;;;;;15.52;6.18;;;18.70;62.50;;;;;;10623650;27;20099;-59
2022/01/18 17:38:22;;;;;;;14.60;6.28;;;18.70;62.50;;;;;;10624523;28;20400;-59
2022/01/18 17:43:27;;;;;;;14.35;5.70;;;18.60;62.40;;;;;;10626154;28;20091;-59
2022/01/18 17:48:31;;;;;;;11.77;5.88;;;18.60;62.40;;;;;;10623650;28;20047;-59
2022/01/18 17:53:36;;;;;;;11.93;5.55;;;18.60;62.40;;;;;;10623509;28;20048;-59
2022/01/18 17:58:42;;;;;;;13.45;5.50;;;18.60;62.40;;;;;;10623821;28;20043;-59
2022/01/18 18:03:47;;;;;;;13.95;6.10;;;18.50;62.40;;;;;;10623336;28;20423;-59
2022/01/18 18:08:52;;;;;;;14.32;5.72;;;18.50;62.30;;;;;;10623754;27;20093;-52
2022/01/18 18:13:59;;;;;;;12.70;5.30;;;18.50;62.40;;;;;;10630641;27;20047;-50
2022/01/18 18:19:04;;;;;;;13.23;5.10;;;18.50;62.40;;;;;;10613401;27;20065;-55
2022/01/18 18:24:11;;;;;;;10.88;3.38;;;18.50;62.60;;;;;;10613374;27;20043;-52
2022/01/18 18:29:16;;;;;;;4.47;3.03;;;18.50;62.70;;;;;;10613492;27;20077;-52
2022/01/18 18:34:24;;;;;;;5.83;2.97;;;18.60;62.90;;;;;;10631176;27;20039;-52
2022/01/18 18:39:41;;;;;;;6.05;2.92;;;18.60;63.00;;;;;;10632035;27;20483;-50
2022/01/18 18:44:47;;;;;;;18.85;9.60;;;18.60;63.00;;;;;;10645185;27;20035;-53
2022/01/18 18:49:51;;;;;;;15.98;8.80;;;18.60;63.00;;;;;;10629784;27;20055;-55
2022/01/18 18:54:56;;;;;;;10.75;6.45;;;18.60;62.90;;;;;;10630259;27;20044;-52
2022/01/18 19:00:18;;;;;;;11.52;6.63;;;18.70;63.10;;;;;;10630330;27;20091;-54
2022/01/18 19:05:23;;;;;;;10.82;6.38;;;18.70;63.00;;;;;;10610876;27;20039;-53
2022/01/18 19:10:30;;;;;;;9.38;6.22;;;18.70;63.00;;;;;;10611248;27;20047;-52
2022/01/18 19:15:35;;;;;;;9.63;5.82;;;18.70;63.00;;;;;;10629421;27;20391;-54
2022/01/18 19:20:41;;;;;;;12.27;6.53;;;18.70;63.00;;;;;;10626129;27;20100;-54
2022/01/18 19:25:48;;;;;;;10.75;5.57;;;18.70;63.10;;;;;;10628901;27;20060;-54
2022/01/18 19:30:53;;;;;;;9.93;5.55;;;18.70;63.10;;;;;;10628667;27;20047;-54
2022/01/18 19:36:03;;;;;;;;;;;18.70;63.00;;;;;;10629153;27;20047;-50
2022/01/18 19:41:09;;;;;;;10.45;5.60;;;18.80;63.00;;;;;;10627749;27;19926;-54
2022/01/18 19:46:13;;;;;;;10.68;6.20;;;18.80;62.80;;;;;;10593630;27;20403;-52
2022/01/18 19:51:18;;;;;;;9.35;5.35;;;19.00;62.60;;;;;;10628088;27;20069;-55
2022/01/18 19:56:23;;;;;;;7.95;4.80;;;19.10;62.40;;;;;;10627815;27;20441;-52
2022/01/18 20:01:27;;;;;;;6.75;4.22;;;19.30;62.30;;;;;;10627072;27;20492;-56
2022/01/18 20:06:33;;;;;;;10.50;5.00;;;19.40;62.00;;;;;;10627110;27;20484;-52
2022/01/18 20:11:39;;;;;;;7.47;4.88;;;19.50;61.90;;;;;;10626677;27;20072;-52
2022/01/18 20:16:44;;;;;;;8.90;4.65;;;19.60;61.90;;;;;;10626551;27;20385;-51
2022/01/18 20:21:50;;;;;;;8.30;4.55;;;19.70;61.90;;;;;;10626259;27;20055;-53
2022/01/18 20:26:55;;;;;;;9.63;4.97;;;19.80;61.90;;;;;;10565623;28;20047;-55
2022/01/18 20:32:02;;;;;;;9.05;5.10;;;19.90;61.90;;;;;;10583651;28;20059;-55
2022/01/18 20:37:07;;;;;;;7.70;4.35;;;19.90;61.80;;;;;;10583151;28;20048;-53
2022/01/18 20:47:36;;;;;;;8.27;3.97;;;20.00;61.70;;;;;;10584117;28;20480;-52
2022/01/18 20:52:42;;;;;;;7.35;3.90;;;20.10;61.70;;;;;;10583164;28;20069;-47
2022/01/18 20:57:47;;;;;;;8.90;4.60;;;20.20;61.70;;;;;;10582185;28;20043;-51
2022/01/18 21:02:52;;;;;;;6.65;4.10;;;20.30;61.60;;;;;;10577063;28;20451;-51
2022/01/18 21:07:56;;;;;;;7.38;4.03;;;20.40;61.50;;;;;;10539464;28;20089;-50
2022/01/18 21:13:01;;;;;;;7.22;4.30;;;20.40;61.50;;;;;;10539084;28;20101;-54
2022/01/18 21:18:06;;;;;;;6.40;3.60;;;20.40;61.50;;;;;;10535668;28;20048;-54
2022/01/18 21:23:11;;;;;;;6.25;4.13;;;20.40;61.50;;;;;;10502896;28;20067;-50
2022/01/18 21:28:17;;;;;;;6.18;4.10;;;20.40;61.40;;;;;;10535252;28;20045;-50
2022/01/18 21:33:21;;;;;;;6.60;4.07;;;20.40;61.50;;;;;;10519008;28;20064;-54
2022/01/18 21:38:26;;;;;;;9.30;5.03;;;20.40;61.50;;;;;;10533068;28;20048;-49
2022/01/18 21:43:38;;;;;;;8.43;5.20;;;20.30;61.40;;;;;;10530777;28;20102;-51
2022/01/18 21:48:43;;;;;;;17.10;5.93;;;20.20;61.30;;;;;;10522923;28;20485;-54
2022/01/18 21:53:51;;;;;;;;;;;20.20;61.10;;;;;;10539085;28;20378;-54
2022/01/18 21:58:57;;;;;;;9.90;5.28;;;20.20;60.90;;;;;;10535339;28;19920;-53
2022/01/18 22:04:03;;;;;;;9.18;5.35;;;20.20;60.80;;;;;;10531927;28;20044;-55
2022/01/18 22:09:09;;;;;;;9.65;5.85;;;20.20;61.40;;;;;;10531764;28;20097;-53
2022/01/18 22:14:14;;;;;;;9.70;5.30;;;20.20;60.80;;;;;;10503478;28;20078;-54
2022/01/18 22:19:21;;;;;;;10.27;5.03;;;20.20;60.90;;;;;;10537839;28;20059;-51
2022/01/18 22:24:26;;;;;;;10.38;5.40;;;20.20;60.90;;;;;;10520200;28;20048;-51
2022/01/18 22:29:31;;;;;;;9.07;5.03;;;20.10;61.00;;;;;;10556080;28;20108;-56
2022/01/18 22:34:36;;;;;;;13.55;7.60;;;20.10;61.00;;;;;;10559356;28;20051;-56
2022/01/18 22:39:41;;;;;;;15.98;7.85;;;20.10;60.70;;;;;;10535221;28;20493;-56
2022/01/18 22:44:47;;;;;;;14.90;8.52;;;19.90;60.70;;;;;;10520081;28;20485;-55
2022/01/18 22:49:52;;;;;;;19.88;8.93;;;19.70;60.90;;;;;;10538350;28;20110;-55
2022/01/18 22:54:59;;;;;;;27.90;8.35;;;19.60;60.90;;;;;;10542292;28;20059;-56
2022/01/18 23:00:29;;;;;;;20.40;9.50;;;19.50;61.00;;;;;;10511065;28;20094;-56
2022/01/18 23:05:34;;;;;;;16.30;8.45;;;19.40;62.30;;;;;;10534696;28;20097;-49
2022/01/18 23:10:39;;;;;;;21.45;8.73;;;19.40;61.80;;;;;;10585901;28;20557;-54
2022/01/18 23:15:44;;;;;;;17.73;7.32;;;19.50;61.80;;;;;;10586231;28;20062;-53
2022/01/18 23:20:50;;;;;;;16.00;7.80;;;19.50;61.70;;;;;;10586072;28;20472;-50
2022/01/18 23:25:55;;;;;;;32.35;7.70;;;19.50;61.70;;;;;;10583393;28;20043;-51
2022/01/18 23:31:00;;;;;;;30.92;7.88;;;19.50;61.70;;;;;;10584453;28;20097;-54
2022/01/18 23:36:07;;;;;;;26.05;7.85;;;19.50;61.90;;;;;;10584839;28;20396;-49
2022/01/18 23:46:39;;;;;;;18.98;7.65;;;19.40;62.00;;;;;;10582618;28;20096;-50
2022/01/18 23:51:44;;;;;;;14.82;7.15;;;19.40;62.10;;;;;;10584186;28;20404;-54
2022/01/18 23:56:49;;;;;;;15.05;7.28;;;19.40;62.10;;;;;;10584914;28;20097;-50
